Time;durP1;ratioP1;P1;durP2;ratioP2;P2;SDS_P1;SDS_P2;PMS_P1;PMS_P2;Temp;Humidity;BMP_temperature;BMP_pressure;BME280_temperature;BME280_humidity;BME280_pressure;Samples;Min_cycle;Max_cycle;Signal;HPM_P1;HPM_P2
2023/06/14 00:01:51;;;;;;;;;;;;;;;;;;5090969;28;20288;-70
2023/06/14 00:09:25;;;;;;;;;;;;;;;;;;5153047;27;20359;-70
2023/06/14 00:11:51;;;;;;;;;;;;;;;;;;5152827;27;19950;-70
2023/06/14 00:16:11;;;;;;;;;;;;;;;;;;5153362;27;20385;-70
2023/06/14 00:20:09;;;;;;;;;;;;;;;;;;5131656;27;20339;-70
2023/06/14 00:22:36;;;;;;;;;;;;;;;;;;5132406;28;19919;-70
2023/06/14 00:27:45;;;;;;;;;;;;;;;;;;5091107;27;20003;-70
2023/06/14 00:30:11;;;;;;;;;;;;;;;;;;5091424;28;19913;-70
2023/06/14 00:34:37;;;;;;;;;;;;;;;;;;5152859;27;20010;-70
2023/06/14 00:37:03;;;;;;;;;;;;;;;;;;5134359;27;20383;-70
2023/06/14 00:41:12;;;;;;;;;;;;;;;;;;5152956;27;19911;-70
2023/06/14 00:44:14;;;;;;;;;;;;;;;;;;5092098;28;19912;-71
2023/06/14 00:46:40;;;;;;;;;;;;;;;;;;5091383;28;19955;-71
2023/06/14 00:49:06;;;;;;;;;;;;;;;;;;5090965;28;19909;-71
2023/06/14 00:51:32;;;;;;;;;;;;;;;;;;5091228;28;20361;-71
2023/06/14 00:58:37;;;;;;;;;;;;;;;;;;5091873;27;19923;-71
2023/06/14 01:01:04;;;;;;;;;;;;;;;;;;5091388;28;20342;-70
2023/06/14 01:03:31;;;;;;;;;;;;;;;;;;5089833;28;20014;-70
2023/06/14 01:08:58;;;;;;;;;;;;;;;;;;5091529;27;19916;-70
2023/06/14 01:13:21;;;;;;;;;;;;;;;;;;5071642;28;19917;-70
2023/06/14 01:20:22;;;;;;;;;;;;;;;;;;5091430;27;19923;-70
2023/06/14 01:28:37;;;;;;;;;;;;;;;;;;5092224;27;19923;-70
2023/06/14 01:31:04;;;;;;;;;;;;;;;;;;5090944;28;19919;-70
2023/06/14 01:33:30;;;;;;;;;;;;;;;;;;5091322;28;20346;-70
2023/06/14 01:37:22;;;;;;;;;;;;;;;;;;5091488;27;19916;-70
2023/06/14 01:39:47;;;;;;;;;;;;;;;;;;5091545;28;19956;-70
2023/06/14 01:43:38;;;;;;;;;;;;;;;;;;5092140;27;20254;-70
2023/06/14 01:49:33;;;;;;;;;;;;;;;;;;5092256;27;19912;-71
2023/06/14 01:51:59;;;;;;;;;;;;;;;;;;5091027;28;20341;-71
2023/06/14 01:54:25;;;;;;;;;;;;;;;;;;5090015;28;20391;-71
2023/06/14 01:56:51;;;;;;;;;;;;;;;;;;5091272;28;19912;-71
2023/06/14 02:00:12;;;;;;;;;;;;;;;;;;5111517;27;20414;-70
2023/06/14 02:08:09;;;;;;;;;;;;;;;;;;5092197;27;19913;-70
2023/06/14 02:14:18;;;;;;;;;;;;;;;;;;5173501;27;20006;-70
2023/06/14 02:17:53;;;;;;;;;;;;;;;;;;5091789;27;19916;-70
2023/06/14 02:20:20;;;;;;;;;;;;;;;;;;5090953;28;19920;-71
2023/06/14 02:22:45;;;;;;;;;;;;;;;;;;5091301;28;19916;-70
2023/06/14 02:25:11;;;;;;;;;;;;;;;;;;5091267;28;19908;-71
2023/06/14 02:38:00;;;;;;;;;;;;;;;;;;5092219;27;19923;-71
2023/06/14 02:47:58;;;;;;;;;;;;;;;;;;5152856;27;19926;-70
2023/06/14 02:50:24;;;;;;;;;;;;;;;;;;5153161;27;19911;-71
2023/06/14 02:54:47;;;;;;;;;;;;;;;;;;5091704;28;19912;-71
2023/06/14 03:02:13;;;;;;;;;;;;;;;;;;5091761;28;19912;-71
2023/06/14 03:04:39;;;;;;;;;;;;;;;;;;5091279;28;19912;-71
2023/06/14 03:07:12;;;;;;;;;;;;;;;;;;5091267;28;19970;-71
2023/06/14 03:13:24;;;;;;;;;;;;;;;;;;5091493;27;19916;-71
2023/06/14 03:15:50;;;;;;;;;;;;;;;;;;5090945;28;20015;-70
2023/06/14 03:18:16;;;;;;;;;;;;;;;;;;5091559;28;20372;-70
2023/06/14 03:20:42;;;;;;;;;;;;;;;;;;5091291;28;20005;-70
2023/06/14 03:26:01;;;;;;;;;;;;;;;;;;5153505;27;19916;-72
2023/06/14 03:28:27;;;;;;;;;;;;;;;;;;5153004;27;19918;-71
2023/06/14 03:30:53;;;;;;;;;;;;;;;;;;5152333;27;19907;-71
2023/06/14 03:33:19;;;;;;;;;;;;;;;;;;5153119;27;20363;-71
2023/06/14 03:35:45;;;;;;;;;;;;;;;;;;5152617;27;20298;-70
2023/06/14 03:41:26;;;;;;;;;;;;;;;;;;5092141;27;20391;-70
2023/06/14 03:44:03;;;;;;;;;;;;;;;;;;5091481;27;20291;-70
2023/06/14 03:48:16;;;;;;;;;;;;;;;;;;5112187;27;19912;-71
2023/06/14 03:50:42;;;;;;;;;;;;;;;;;;5111934;28;20007;-70
2023/06/14 03:53:08;;;;;;;;;;;;;;;;;;5111227;28;19908;-70
2023/06/14 03:56:15;;;;;;;;;;;;;;;;;;5092190;27;19916;-70
2023/06/14 03:58:41;;;;;;;;;;;;;;;;;;5091020;28;19995;-70
2023/06/14 04:01:07;;;;;;;;;;;;;;;;;;5091337;28;19999;-70
2023/06/14 04:09:01;;;;;;;;;;;;;;;;;;5091717;27;19923;-70
2023/06/14 04:12:29;;;;;;;;;;;;;;;;;;5091525;27;19923;-70
2023/06/14 04:14:55;;;;;;;;;;;;;;;;;;5091626;28;20011;-71
2023/06/14 04:18:57;;;;;;;;;;;;;;;;;;5091719;27;19917;-70
2023/06/14 04:21:23;;;;;;;;;;;;;;;;;;5091010;28;19935;-70
2023/06/14 04:23:52;;;;;;;;;;;;;;;;;;5091417;28;20361;-71
2023/06/14 04:26:19;;;;;;;;;;;;;;;;;;5091452;28;19908;-71
2023/06/14 04:30:38;;;;;;;;;;;;;;;;;;5152930;27;19912;-71
2023/06/14 04:34:05;;;;;;;;;;;;;;;;;;5051178;28;19923;-71
2023/06/14 04:36:34;;;;;;;;;;;;;;;;;;5051437;28;19917;-70
2023/06/14 04:43:57;;;;;;;;;;;;;;;;;;5071849;28;19913;-70
2023/06/14 04:46:23;;;;;;;;;;;;;;;;;;5071269;28;19958;-70
2023/06/14 04:49:47;;;;;;;;;;;;;;;;;;5153121;27;20002;-71
2023/06/14 04:53:02;;;;;;;;;;;;;;;;;;5092220;27;19916;-71
2023/06/14 04:55:28;;;;;;;;;;;;;;;;;;5091263;28;20003;-70
2023/06/14 05:04:01;;;;;;;;;;;;;;;;;;5091706;27;20343;-70
2023/06/14 05:06:49;;;;;;;;;;;;;;;;;;5091880;27;19916;-70
2023/06/14 05:09:18;;;;;;;;;;;;;;;;;;5091142;28;19912;-69
2023/06/14 05:12:18;;;;;;;;;;;;;;;;;;5091996;27;19917;-70
2023/06/14 05:14:43;;;;;;;;;;;;;;;;;;5091494;28;19916;-70
2023/06/14 05:17:09;;;;;;;;;;;;;;;;;;5090844;28;19931;-70
2023/06/14 05:22:10;;;;;;;;;;;;;;;;;;5082030;27;19927;-66
2023/06/14 05:24:36;;;;;;;;;;;;;;;;;;5066962;28;19923;-65
2023/06/14 05:32:35;;;;;;;;;;;;;;;;;;5103725;27;19916;-66
2023/06/14 05:38:23;;;;;;;;;;;;;;;;;;5086954;27;19924;-67
2023/06/14 05:40:49;;;;;;;;;;;;;;;;;;5092164;28;19912;-67
2023/06/14 05:49:38;;;;;;;;;;;;;;;;;;5088004;27;20303;-66
2023/06/14 05:52:41;;;;;;;;;;;;;;;;;;5142459;27;19923;-66
2023/06/14 05:56:02;;;;;;;;;;;;;;;;;;5090138;27;19916;-66
2023/06/14 05:59:50;;;;;;;;;;;;;;;;;;5142617;27;19919;-66
2023/06/14 06:02:16;;;;;;;;;;;;;;;;;;5133057;27;20002;-65
2023/06/14 06:04:42;;;;;;;;;;;;;;;;;;5116485;27;20003;-66
2023/06/14 06:09:14;;;;;;;;;;;;;;;;;;5074825;27;19916;-65
2023/06/14 06:11:40;;;;;;;;;;;;;;;;;;5085447;28;19921;-66
2023/06/14 06:14:06;;;;;;;;;;;;;;;;;;5075212;28;20648;-66
2023/06/14 06:18:10;;;;;;;;;;;;;;;;;;5085879;28;19923;-67
2023/06/14 06:22:21;;;;;;;;;;;;;;;;;;5080563;28;19924;-67
2023/06/14 06:29:43;;;;;;;;;;;;;;;;;;5043872;27;2898702;-68
2023/06/14 06:32:10;;;;;;;;;;;;;;;;;;5139883;27;19980;-66
2023/06/14 06:36:32;;;;;;;;;;;;;;;;;;5085681;28;19921;-67
2023/06/14 06:38:58;;;;;;;;;;;;;;;;;;5085166;28;20028;-67
2023/06/14 06:41:24;;;;;;;;;;;;;;;;;;5087374;28;20443;-67
2023/06/14 06:43:50;;;;;;;;;;;;;;;;;;5086982;28;20422;-66
2023/06/14 06:48:41;;;;;;;;;;;;;;;;;;5087932;28;20403;-67
2023/06/14 06:56:53;;;;;;;;;;;;;;;;;;5085696;27;19926;-67
2023/06/14 06:59:19;;;;;;;;;;;;;;;;;;5082129;28;19912;-68
2023/06/14 07:01:45;;;;;;;;;;;;;;;;;;5085038;28;19912;-67
2023/06/14 07:04:11;;;;;;;;;;;;;;;;;;5075334;28;19909;-68
2023/06/14 07:10:27;;;;;;;;;;;;;;;;;;5122989;27;19911;-65
2023/06/14 07:12:53;;;;;;;;;;;;;;;;;;5126515;28;19918;-65
2023/06/14 07:15:38;;;;;;;;;;;;;;;;;;5062879;28;20381;-64
2023/06/14 07:18:04;;;;;;;;;;;;;;;;;;5062524;28;20556;-65
2023/06/14 07:20:30;;;;;;;;;;;;;;;;;;5063426;28;19908;-66
2023/06/14 07:23:27;;;;;;;;;;;;;;;;;;5106809;27;19912;-65
2023/06/14 07:25:53;;;;;;;;;;;;;;;;;;5119228;28;19919;-65
2023/06/14 07:31:33;;;;;;;;;;;;;;;;;;5153661;27;19951;-64
2023/06/14 07:33:59;;;;;;;;;;;;;;;;;;5148365;27;20096;-65
2023/06/14 07:36:44;;;;;;;;;;;;;;;;;;5083367;28;19923;-65
2023/06/14 07:39:10;;;;;;;;;;;;;;;;;;5080487;28;19924;-67
2023/06/14 07:43:57;;;;;;;;;;;;;;;;;;5107167;27;19916;-64
2023/06/14 07:48:51;;;;;;;;;;;;;;;;;;5128505;27;19927;-63
2023/06/14 07:55:39;;;;;;;;;;;;;;;;;;5083640;27;19927;-64
2023/06/14 07:58:05;;;;;;;;;;;;;;;;;;5088636;28;19913;-65
2023/06/14 08:00:31;;;;;;;;;;;;;;;;;;5085911;28;19916;-64
2023/06/14 08:02:59;;;;;;;;;;;;;;;;;;5085058;28;19916;-67
2023/06/14 08:05:25;;;;;;;;;;;;;;;;;;5084082;28;19922;-67
2023/06/14 08:07:51;;;;;;;;;;;;;;;;;;5084494;28;19913;-67
2023/06/14 08:10:17;;;;;;;;;;;;;;;;;;5088667;28;19916;-69
2023/06/14 08:12:43;;;;;;;;;;;;;;;;;;5086262;28;19912;-67
2023/06/14 08:15:09;;;;;;;;;;;;;;;;;;5087852;28;19942;-66
2023/06/14 08:20:40;;;;;;;;;;;;;;;;;;5088667;27;19916;-68
2023/06/14 08:23:05;;;;;;;;;;;;;;;;;;5083661;28;19955;-67
2023/06/14 08:27:14;;;;;;;;;;;;;;;;;;5130399;27;20371;-67
2023/06/14 08:30:17;;;;;;;;;;;;;;;;;;5087397;28;19979;-66
2023/06/14 08:32:43;;;;;;;;;;;;;;;;;;5080330;28;20293;-67
2023/06/14 08:35:09;;;;;;;;;;;;;;;;;;5074196;28;19935;-66
2023/06/14 08:37:35;;;;;;;;;;;;;;;;;;5068620;28;19917;-70
2023/06/14 08:40:44;;;;;;;;;;;;;;;;;;5089105;27;19920;-69
2023/06/14 08:43:10;;;;;;;;;;;;;;;;;;5091037;28;19999;-69
2023/06/14 08:47:51;;;;;;;;;;;;;;;;;;5090851;28;19912;-69
2023/06/14 08:51:33;;;;;;;;;;;;;;;;;;5133534;27;19912;-69
2023/06/14 08:55:09;;;;;;;;;;;;;;;;;;5172845;27;19918;-69
2023/06/14 08:57:37;;;;;;;;;;;;;;;;;;5172864;27;19926;-70
2023/06/14 09:00:09;;;;;;;;;;;;;;;;;;5154325;27;19913;-70
2023/06/14 09:02:35;;;;;;;;;;;;;;;;;;5164340;27;19911;-66
2023/06/14 09:05:01;;;;;;;;;;;;;;;;;;5135101;27;20428;-67
2023/06/14 09:09:13;;;;;;;;;;;;;;;;;;5122500;27;19945;-69
2023/06/14 09:13:44;;;;;;;;;;;;;;;;;;5132089;27;20006;-68
2023/06/14 09:18:38;;;;;;;;;;;;;;;;;;5152389;27;19941;-68
2023/06/14 09:21:04;;;;;;;;;;;;;;;;;;5145284;27;20299;-66
2023/06/14 09:23:30;;;;;;;;;;;;;;;;;;5136896;27;19912;-69
2023/06/14 09:25:56;;;;;;;;;;;;;;;;;;5149739;27;19911;-68
2023/06/14 09:28:22;;;;;;;;;;;;;;;;;;5152521;27;19914;-68
2023/06/14 09:30:48;;;;;;;;;;;;;;;;;;5139483;27;19915;-69
2023/06/14 09:33:15;;;;;;;;;;;;;;;;;;5150074;27;19907;-71
2023/06/14 09:35:41;;;;;;;;;;;;;;;;;;5145750;27;19998;-70
2023/06/14 09:38:07;;;;;;;;;;;;;;;;;;5134675;27;20454;-67
2023/06/14 09:40:33;;;;;;;;;;;;;;;;;;5132123;27;19912;-68
2023/06/14 09:42:59;;;;;;;;;;;;;;;;;;5145076;27;20375;-68
2023/06/14 09:47:32;;;;;;;;;;;;;;;;;;5143094;27;19920;-68
2023/06/14 09:49:58;;;;;;;;;;;;;;;;;;5120390;28;20295;-68
2023/06/14 09:52:26;;;;;;;;;;;;;;;;;;5128255;28;20022;-70
2023/06/14 09:54:53;;;;;;;;;;;;;;;;;;5128468;28;19980;-68
2023/06/14 09:57:19;;;;;;;;;;;;;;;;;;5126991;28;19912;-67
2023/06/14 09:59:45;;;;;;;;;;;;;;;;;;5127967;28;19915;-68
2023/06/14 10:02:12;;;;;;;;;;;;;;;;;;5127411;28;19971;-70
2023/06/14 10:04:38;;;;;;;;;;;;;;;;;;5128302;28;19919;-68
2023/06/14 10:07:05;;;;;;;;;;;;;;;;;;5127029;28;19919;-66
2023/06/14 10:09:31;;;;;;;;;;;;;;;;;;5129079;28;19915;-67
2023/06/14 10:11:56;;;;;;;;;;;;;;;;;;5128154;28;19926;-66
2023/06/14 10:14:22;;;;;;;;;;;;;;;;;;5128680;28;19908;-66
2023/06/14 10:16:48;;;;;;;;;;;;;;;;;;5128204;28;19915;-66
2023/06/14 10:19:14;;;;;;;;;;;;;;;;;;5129457;28;20355;-66
2023/06/14 10:21:42;;;;;;;;;;;;;;;;;;5130716;28;19957;-66
2023/06/14 10:24:08;;;;;;;;;;;;;;;;;;5130507;28;20292;-66
2023/06/14 10:26:34;;;;;;;;;;;;;;;;;;5129050;28;19923;-66
2023/06/14 10:29:01;;;;;;;;;;;;;;;;;;5129268;28;20386;-66
2023/06/14 10:31:27;;;;;;;;;;;;;;;;;;5111189;28;19950;-68
2023/06/14 10:33:53;;;;;;;;;;;;;;;;;;5110835;28;19951;-67
2023/06/14 10:36:28;;;;;;;;;;;;;;;;;;5146902;27;19926;-67
2023/06/14 10:38:54;;;;;;;;;;;;;;;;;;5117885;28;20367;-69
2023/06/14 10:41:19;;;;;;;;;;;;;;;;;;5119500;27;19912;-67
2023/06/14 10:43:45;;;;;;;;;;;;;;;;;;5125350;27;19943;-67
2023/06/14 10:46:11;;;;;;;;;;;;;;;;;;5119890;28;20416;-67
2023/06/14 10:48:37;;;;;;;;;;;;;;;;;;5121125;27;19962;-70
2023/06/14 10:51:03;;;;;;;;;;;;;;;;;;5140466;27;19957;-66
2023/06/14 10:53:29;;;;;;;;;;;;;;;;;;5122144;28;19911;-67
2023/06/14 10:55:55;;;;;;;;;;;;;;;;;;5131207;28;19927;-66
2023/06/14 10:58:21;;;;;;;;;;;;;;;;;;5125196;28;19908;-68
2023/06/14 11:00:47;;;;;;;;;;;;;;;;;;5130756;28;19916;-66
2023/06/14 11:03:14;;;;;;;;;;;;;;;;;;5134422;27;19907;-67
2023/06/14 11:05:39;;;;;;;;;;;;;;;;;;5141800;27;19957;-66
2023/06/14 11:08:05;;;;;;;;;;;;;;;;;;5134090;27;20305;-67
2023/06/14 11:10:31;;;;;;;;;;;;;;;;;;5139250;27;20276;-68
2023/06/14 11:12:57;;;;;;;;;;;;;;;;;;5127784;27;19923;-67
2023/06/14 11:15:25;;;;;;;;;;;;;;;;;;5115057;28;19924;-67
2023/06/14 11:19:28;;;;;;;;;;;;;;;;;;5086863;27;20394;-66
2023/06/14 11:21:54;;;;;;;;;;;;;;;;;;5088300;28;19986;-67
2023/06/14 11:24:20;;;;;;;;;;;;;;;;;;5087929;28;19959;-68
2023/06/14 11:26:46;;;;;;;;;;;;;;;;;;5088125;28;19916;-67
2023/06/14 11:29:12;;;;;;;;;;;;;;;;;;5085054;28;19919;-67
2023/06/14 11:31:38;;;;;;;;;;;;;;;;;;5086229;28;19912;-66
2023/06/14 11:34:06;;;;;;;;;;;;;;;;;;5088123;28;19955;-67
2023/06/14 11:36:32;;;;;;;;;;;;;;;;;;5089124;28;19908;-66
2023/06/14 11:38:58;;;;;;;;;;;;;;;;;;5089006;28;19922;-68
2023/06/14 11:41:25;;;;;;;;;;;;;;;;;;5089404;28;19919;-68
2023/06/14 11:43:51;;;;;;;;;;;;;;;;;;5088256;28;19916;-67
2023/06/14 11:46:17;;;;;;;;;;;;;;;;;;5087669;28;19960;-67
2023/06/14 11:48:43;;;;;;;;;;;;;;;;;;5095364;28;19912;-67
2023/06/14 11:51:11;;;;;;;;;;;;;;;;;;5088725;28;19923;-67
2023/06/14 11:53:37;;;;;;;;;;;;;;;;;;5087473;28;19954;-67
2023/06/14 11:56:03;;;;;;;;;;;;;;;;;;5087488;28;20352;-70
2023/06/14 11:58:28;;;;;;;;;;;;;;;;;;5086729;28;19959;-66
2023/06/14 12:00:55;;;;;;;;;;;;;;;;;;5089044;28;19962;-66
2023/06/14 12:03:21;;;;;;;;;;;;;;;;;;5086012;28;19944;-66
2023/06/14 12:05:47;;;;;;;;;;;;;;;;;;5088871;28;19916;-66
2023/06/14 12:08:17;;;;;;;;;;;;;;;;;;5089587;28;19991;-68
2023/06/14 12:10:43;;;;;;;;;;;;;;;;;;5089079;28;19954;-68
2023/06/14 12:13:10;;;;;;;;;;;;;;;;;;5089521;28;19966;-68
2023/06/14 12:15:36;;;;;;;;;;;;;;;;;;5088945;28;20387;-68
2023/06/14 12:18:02;;;;;;;;;;;;;;;;;;5097598;28;19920;-69
2023/06/14 12:20:28;;;;;;;;;;;;;;;;;;5109365;28;19912;-68
2023/06/14 12:22:54;;;;;;;;;;;;;;;;;;5108845;28;20317;-68
2023/06/14 12:25:20;;;;;;;;;;;;;;;;;;5101673;28;20436;-67
2023/06/14 12:27:46;;;;;;;;;;;;;;;;;;5104309;28;19912;-67
2023/06/14 12:30:11;;;;;;;;;;;;;;;;;;5094862;28;19916;-69
2023/06/14 12:32:37;;;;;;;;;;;;;;;;;;5090469;28;19957;-67
2023/06/14 12:35:03;;;;;;;;;;;;;;;;;;5092415;28;20007;-70
2023/06/14 12:37:29;;;;;;;;;;;;;;;;;;5092152;28;19919;-70
2023/06/14 12:39:55;;;;;;;;;;;;;;;;;;5091689;28;19912;-70
2023/06/14 12:42:21;;;;;;;;;;;;;;;;;;5091325;28;20257;-71
2023/06/14 12:44:47;;;;;;;;;;;;;;;;;;5092743;28;20062;-70
2023/06/14 12:47:13;;;;;;;;;;;;;;;;;;5074736;28;19919;-71
2023/06/14 12:49:40;;;;;;;;;;;;;;;;;;5094079;28;20490;-70
2023/06/14 12:52:05;;;;;;;;;;;;;;;;;;5094827;28;19991;-70
2023/06/14 12:54:31;;;;;;;;;;;;;;;;;;5095665;28;19966;-70
2023/06/14 12:56:57;;;;;;;;;;;;;;;;;;5096044;28;20295;-69
2023/06/14 12:59:23;;;;;;;;;;;;;;;;;;5096271;28;19908;-70
2023/06/14 13:01:50;;;;;;;;;;;;;;;;;;5095880;28;20436;-70
2023/06/14 13:04:16;;;;;;;;;;;;;;;;;;5096195;28;19914;-70
2023/06/14 13:06:42;;;;;;;;;;;;;;;;;;5077729;28;20414;-69
2023/06/14 13:09:08;;;;;;;;;;;;;;;;;;5096086;28;19908;-69
2023/06/14 13:11:34;;;;;;;;;;;;;;;;;;5096002;28;20292;-70
2023/06/14 13:14:00;;;;;;;;;;;;;;;;;;5095550;28;20326;-69
2023/06/14 13:16:26;;;;;;;;;;;;;;;;;;5095856;28;19983;-70
2023/06/14 13:18:52;;;;;;;;;;;;;;;;;;5074140;28;20011;-68
2023/06/14 13:21:18;;;;;;;;;;;;;;;;;;5075201;28;19917;-69
2023/06/14 13:23:44;;;;;;;;;;;;;;;;;;5075281;28;19912;-68
2023/06/14 13:26:10;;;;;;;;;;;;;;;;;;5075452;28;20405;-68
2023/06/14 13:28:36;;;;;;;;;;;;;;;;;;5074889;28;19908;-69
2023/06/14 13:31:02;;;;;;;;;;;;;;;;;;5075317;28;19930;-68
2023/06/14 13:33:28;;;;;;;;;;;;;;;;;;5075462;28;19916;-68
2023/06/14 13:35:54;;;;;;;;;;;;;;;;;;5074853;28;19908;-70
2023/06/14 13:38:20;;;;;;;;;;;;;;;;;;5075140;28;19963;-68
2023/06/14 13:40:46;;;;;;;;;;;;;;;;;;5074433;28;20351;-69
2023/06/14 13:43:12;;;;;;;;;;;;;;;;;;5074742;28;19936;-69
2023/06/14 13:45:38;;;;;;;;;;;;;;;;;;5075172;28;19916;-69
2023/06/14 13:48:04;;;;;;;;;;;;;;;;;;5075041;28;19912;-69
2023/06/14 13:50:30;;;;;;;;;;;;;;;;;;5073299;28;19916;-69
2023/06/14 13:52:56;;;;;;;;;;;;;;;;;;5075002;28;19914;-69
2023/06/14 13:55:22;;;;;;;;;;;;;;;;;;5074820;28;19912;-69
2023/06/14 13:57:48;;;;;;;;;;;;;;;;;;5074336;28;20329;-69
2023/06/14 14:00:14;;;;;;;;;;;;;;;;;;5074786;28;19908;-70
2023/06/14 14:02:40;;;;;;;;;;;;;;;;;;5073555;28;19909;-69
2023/06/14 14:05:06;;;;;;;;;;;;;;;;;;5074388;28;19909;-69
2023/06/14 14:07:32;;;;;;;;;;;;;;;;;;5074677;28;19916;-70
2023/06/14 14:09:58;;;;;;;;;;;;;;;;;;5074289;28;20249;-70
2023/06/14 14:12:25;;;;;;;;;;;;;;;;;;5074555;28;19908;-70
2023/06/14 14:14:51;;;;;;;;;;;;;;;;;;5074467;28;19908;-70
2023/06/14 14:17:17;;;;;;;;;;;;;;;;;;5076391;28;19909;-70
2023/06/14 14:19:43;;;;;;;;;;;;;;;;;;5094651;28;19970;-70
2023/06/14 14:22:09;;;;;;;;;;;;;;;;;;5094690;28;20364;-70
2023/06/14 14:24:35;;;;;;;;;;;;;;;;;;5094234;28;20378;-72
2023/06/14 14:27:01;;;;;;;;;;;;;;;;;;5094554;28;19931;-70
2023/06/14 14:29:29;;;;;;;;;;;;;;;;;;5094549;28;19962;-70
2023/06/14 14:31:55;;;;;;;;;;;;;;;;;;5094076;28;20253;-71
2023/06/14 14:34:21;;;;;;;;;;;;;;;;;;5094661;28;19908;-71
2023/06/14 14:36:47;;;;;;;;;;;;;;;;;;5094516;28;20386;-70
2023/06/14 14:39:13;;;;;;;;;;;;;;;;;;5094014;28;20382;-71
2023/06/14 14:41:39;;;;;;;;;;;;;;;;;;5094307;28;20383;-71
2023/06/14 14:44:05;;;;;;;;;;;;;;;;;;5094285;28;20289;-70
2023/06/14 14:46:31;;;;;;;;;;;;;;;;;;5093995;28;20360;-71
2023/06/14 14:48:57;;;;;;;;;;;;;;;;;;5094450;28;19908;-71
2023/06/14 14:51:23;;;;;;;;;;;;;;;;;;5091870;28;19908;-70
2023/06/14 14:53:49;;;;;;;;;;;;;;;;;;5075226;28;19908;-70
2023/06/14 14:56:16;;;;;;;;;;;;;;;;;;5094162;28;19908;-70
2023/06/14 14:58:43;;;;;;;;;;;;;;;;;;5075810;28;19916;-70
2023/06/14 15:01:09;;;;;;;;;;;;;;;;;;5093617;28;19908;-70
2023/06/14 15:03:35;;;;;;;;;;;;;;;;;;5093981;28;19919;-71
2023/06/14 15:06:01;;;;;;;;;;;;;;;;;;5094084;28;19908;-70
2023/06/14 15:08:27;;;;;;;;;;;;;;;;;;5093571;28;19908;-71
2023/06/14 15:10:52;;;;;;;;;;;;;;;;;;5093933;28;19908;-71
2023/06/14 15:13:19;;;;;;;;;;;;;;;;;;5093541;28;19912;-70
2023/06/14 15:15:45;;;;;;;;;;;;;;;;;;5093920;28;19918;-71
2023/06/14 15:18:11;;;;;;;;;;;;;;;;;;5093440;28;19920;-70
2023/06/14 15:20:37;;;;;;;;;;;;;;;;;;5093498;28;19908;-71
2023/06/14 15:23:03;;;;;;;;;;;;;;;;;;5094231;28;20326;-71
2023/06/14 15:25:29;;;;;;;;;;;;;;;;;;5093942;28;20296;-71
2023/06/14 15:27:55;;;;;;;;;;;;;;;;;;5093380;28;19947;-70
2023/06/14 15:30:21;;;;;;;;;;;;;;;;;;5093542;28;20288;-71
2023/06/14 15:32:47;;;;;;;;;;;;;;;;;;5094258;28;20310;-70
2023/06/14 15:35:13;;;;;;;;;;;;;;;;;;5093277;28;20279;-71
2023/06/14 15:37:39;;;;;;;;;;;;;;;;;;5093529;28;20019;-70
2023/06/14 15:40:05;;;;;;;;;;;;;;;;;;5094181;28;19912;-69
2023/06/14 15:42:31;;;;;;;;;;;;;;;;;;5093230;28;20250;-69
2023/06/14 15:44:57;;;;;;;;;;;;;;;;;;5093391;28;20336;-69
2023/06/14 15:47:23;;;;;;;;;;;;;;;;;;5093503;28;20272;-70
2023/06/14 15:49:49;;;;;;;;;;;;;;;;;;5093116;28;19994;-69
2023/06/14 15:52:15;;;;;;;;;;;;;;;;;;5093537;28;19916;-69
2023/06/14 15:54:41;;;;;;;;;;;;;;;;;;5093475;28;20466;-70
2023/06/14 15:57:07;;;;;;;;;;;;;;;;;;5093118;28;20291;-69
2023/06/14 15:59:32;;;;;;;;;;;;;;;;;;5093432;28;20257;-70
2023/06/14 16:01:58;;;;;;;;;;;;;;;;;;5093330;28;19916;-69
2023/06/14 16:04:24;;;;;;;;;;;;;;;;;;5093943;28;19927;-69
2023/06/14 16:06:50;;;;;;;;;;;;;;;;;;5079132;28;19908;-70
2023/06/14 16:09:16;;;;;;;;;;;;;;;;;;5097190;28;19947;-69
2023/06/14 16:11:58;;;;;;;;;;;;;;;;;;5111587;27;19912;-68
2023/06/14 16:16:22;;;;;;;;;;;;;;;;;;5091460;28;19916;-68
2023/06/14 16:18:48;;;;;;;;;;;;;;;;;;5090859;28;20349;-68
2023/06/14 16:21:15;;;;;;;;;;;;;;;;;;5089842;28;19948;-68
2023/06/14 16:23:41;;;;;;;;;;;;;;;;;;5090760;28;19908;-69
2023/06/14 16:27:40;;;;;;;;;;;;;;;;;;5111593;27;19912;-69
2023/06/14 16:32:13;;;;;;;;;;;;;;;;;;5111315;27;19912;-70
2023/06/14 16:34:39;;;;;;;;;;;;;;;;;;5111573;28;19995;-69
2023/06/14 16:37:47;;;;;;;;;;;;;;;;;;5091243;27;19922;-69
2023/06/14 16:40:13;;;;;;;;;;;;;;;;;;5091277;28;20006;-70
2023/06/14 16:42:39;;;;;;;;;;;;;;;;;;5091298;28;19908;-70
2023/06/14 16:46:40;;;;;;;;;;;;;;;;;;5090899;27;20384;-70
2023/06/14 16:52:32;;;;;;;;;;;;;;;;;;5152695;27;20443;-71
2023/06/14 16:54:58;;;;;;;;;;;;;;;;;;5152749;27;19919;-71
2023/06/14 16:58:06;;;;;;;;;;;;;;;;;;5152979;27;19998;-69
2023/06/14 17:00:33;;;;;;;;;;;;;;;;;;5152471;27;19954;-69
2023/06/14 17:02:59;;;;;;;;;;;;;;;;;;5152815;27;19907;-69
2023/06/14 17:05:25;;;;;;;;;;;;;;;;;;5134153;27;19972;-70
2023/06/14 17:09:46;;;;;;;;;;;;;;;;;;5091376;27;19923;-72
2023/06/14 17:12:12;;;;;;;;;;;;;;;;;;5091370;28;20007;-71
2023/06/14 17:14:38;;;;;;;;;;;;;;;;;;5090576;28;19908;-68
2023/06/14 17:17:04;;;;;;;;;;;;;;;;;;5091171;28;19954;-69
2023/06/14 17:22:03;;;;;;;;;;;;;;;;;;5090831;27;19919;-69
2023/06/14 17:24:29;;;;;;;;;;;;;;;;;;5091320;28;20011;-70
2023/06/14 17:26:56;;;;;;;;;;;;;;;;;;5089530;28;20426;-68
2023/06/14 17:30:47;;;;;;;;;;;;;;;;;;5091341;28;19923;-70
2023/06/14 17:33:37;;;;;;;;;;;;;;;;;;5091344;27;20299;-70
2023/06/14 17:38:18;;;;;;;;;;;;;;;;;;5091336;27;19919;-70
2023/06/14 17:40:44;;;;;;;;;;;;;;;;;;5091116;28;20003;-69
2023/06/14 17:51:44;;;;;;;;;;;;;;;;;;5153130;27;20006;-70
2023/06/14 17:54:10;;;;;;;;;;;;;;;;;;5124360;28;20375;-70
2023/06/14 17:59:09;;;;;;;;;;;;;;;;;;5091607;27;19916;-69
2023/06/14 18:03:18;;;;;;;;;;;;;;;;;;5066968;27;2400458;-71
2023/06/14 18:05:44;;;;;;;;;;;;;;;;;;5152929;27;19911;-71
2023/06/14 18:09:56;;;;;;;;;;;;;;;;;;5111406;27;19912;-70
2023/06/14 18:13:13;;;;;;;;;;;;;;;;;;5092005;27;20277;-70
2023/06/14 18:15:39;;;;;;;;;;;;;;;;;;5091412;28;19917;-71
2023/06/14 18:18:04;;;;;;;;;;;;;;;;;;5089564;28;19932;-70
2023/06/14 18:20:31;;;;;;;;;;;;;;;;;;5091299;28;20343;-70
2023/06/14 18:22:57;;;;;;;;;;;;;;;;;;5091266;28;20296;-72
2023/06/14 18:25:23;;;;;;;;;;;;;;;;;;5090917;28;19935;-70
2023/06/14 18:29:39;;;;;;;;;;;;;;;;;;5091841;27;19918;-69
2023/06/14 18:32:17;;;;;;;;;;;;;;;;;;5090964;27;19917;-69
2023/06/14 18:34:43;;;;;;;;;;;;;;;;;;5091267;28;20432;-69
2023/06/14 18:37:09;;;;;;;;;;;;;;;;;;5091077;28;19970;-69
2023/06/14 18:41:49;;;;;;;;;;;;;;;;;;5112178;27;19912;-71
2023/06/14 18:44:38;;;;;;;;;;;;;;;;;;5153140;27;20386;-72
2023/06/14 18:50:01;;;;;;;;;;;;;;;;;;5092239;27;19923;-71
2023/06/14 18:52:27;;;;;;;;;;;;;;;;;;5091191;28;20347;-71
2023/06/14 18:58:50;;;;;;;;;;;;;;;;;;5152505;27;19933;-69
2023/06/14 19:01:16;;;;;;;;;;;;;;;;;;5152880;27;20332;-69
2023/06/14 19:06:07;;;;;;;;;;;;;;;;;;5090995;27;19916;-70
2023/06/14 19:12:25;;;;;;;;;;;;;;;;;;5173778;27;20017;-70
2023/06/14 19:14:51;;;;;;;;;;;;;;;;;;5173597;27;20350;-70
2023/06/14 19:18:00;;;;;;;;;;;;;;;;;;5152981;27;20005;-69
2023/06/14 19:20:25;;;;;;;;;;;;;;;;;;5152526;27;19937;-69
2023/06/14 19:28:41;;;;;;;;;;;;;;;;;;5091086;27;19916;-69
2023/06/14 19:31:07;;;;;;;;;;;;;;;;;;5091321;28;20016;-70
2023/06/14 19:33:33;;;;;;;;;;;;;;;;;;5090138;28;20019;-70
2023/06/14 19:35:59;;;;;;;;;;;;;;;;;;5090933;28;19956;-70
2023/06/14 19:38:25;;;;;;;;;;;;;;;;;;5091019;28;19908;-71
2023/06/14 19:40:51;;;;;;;;;;;;;;;;;;5090783;28;19965;-71
2023/06/14 19:45:24;;;;;;;;;;;;;;;;;;5090882;27;19917;-71
2023/06/14 19:48:36;;;;;;;;;;;;;;;;;;5152151;27;19915;-70
2023/06/14 19:51:02;;;;;;;;;;;;;;;;;;5134239;27;20389;-70
2023/06/14 19:53:47;;;;;;;;;;;;;;;;;;5091572;27;20364;-70
2023/06/14 19:56:26;;;;;;;;;;;;;;;;;;5090951;28;19923;-70
2023/06/14 19:59:34;;;;;;;;;;;;;;;;;;5076305;27;2149810;-71
2023/06/14 20:02:00;;;;;;;;;;;;;;;;;;5152553;27;20010;-70
2023/06/14 20:04:25;;;;;;;;;;;;;;;;;;5152799;27;19946;-70
2023/06/14 20:07:07;;;;;;;;;;;;;;;;;;5091613;27;20368;-72
2023/06/14 20:11:06;;;;;;;;;;;;;;;;;;5092270;28;19922;-70
2023/06/14 20:13:32;;;;;;;;;;;;;;;;;;5091448;28;20354;-69
2023/06/14 20:16:36;;;;;;;;;;;;;;;;;;5152912;27;20367;-69
2023/06/14 20:19:02;;;;;;;;;;;;;;;;;;5152910;27;19917;-70
2023/06/14 20:21:28;;;;;;;;;;;;;;;;;;5152765;27;20324;-70
2023/06/14 20:27:15;;;;;;;;;;;;;;;;;;5091806;27;19916;-69
2023/06/14 20:31:51;;;;;;;;;;;;;;;;;;5152652;27;19983;-69
2023/06/14 20:34:17;;;;;;;;;;;;;;;;;;5152856;27;20367;-69
2023/06/14 20:36:42;;;;;;;;;;;;;;;;;;5152680;27;19952;-69
2023/06/14 20:39:09;;;;;;;;;;;;;;;;;;5152923;27;19911;-70
2023/06/14 20:49:01;;;;;;;;;;;;;;;;;;5091335;28;20004;-69
2023/06/14 20:51:27;;;;;;;;;;;;;;;;;;5091116;28;19913;-69
2023/06/14 20:56:20;;;;;;;;;;;;;;;;;;5092053;27;19916;-69
2023/06/14 20:58:46;;;;;;;;;;;;;;;;;;5090907;28;19916;-69
2023/06/14 21:01:13;;;;;;;;;;;;;;;;;;5091246;28;19916;-69
2023/06/14 21:06:43;;;;;;;;;;;;;;;;;;5111468;27;20388;-69
2023/06/14 21:09:23;;;;;;;;;;;;;;;;;;5091551;28;20391;-69
2023/06/14 21:11:49;;;;;;;;;;;;;;;;;;5091331;28;19916;-69
2023/06/14 21:14:15;;;;;;;;;;;;;;;;;;5090931;28;19936;-68
2023/06/14 21:30:45;;;;;;;;;;;;;;;;;;5091750;27;19923;-71
2023/06/14 21:35:40;;;;;;;;;;;;;;;;;;5051501;28;19924;-68